sensor_id;sensor_type;location;lat;lon;timestamp;P1;durP1;ratioP1;P2;durP2;ratioP2
20743;SDS011;56303;52.160;-0.428;2023-03-25T00:00:08;8.47;;;3.03;;
20743;SDS011;56303;52.160;-0.428;2023-03-25T00:02:44;9.33;;;3.10;;
20743;SDS011;56303;52.160;-0.428;2023-03-25T00:05:13;4.77;;;1.97;;
20743;SDS011;56303;52.160;-0.428;2023-03-25T00:07:42;6.10;;;1.93;;
20743;SDS011;56303;52.160;-0.428;2023-03-25T00:10:10;11.13;;;3.23;;
20743;SDS011;56303;52.160;-0.428;2023-03-25T00:12:38;7.33;;;2.10;;
20743;SDS011;56303;52.160;-0.428;2023-03-25T00:15:06;4.80;;;1.77;;
20743;SDS011;56303;52.160;-0.428;2023-03-25T00:17:35;7.53;;;1.90;;
20743;SDS011;56303;52.160;-0.428;2023-03-25T00:20:04;7.70;;;3.00;;
20743;SDS011;56303;52.160;-0.428;2023-03-25T00:22:34;7.30;;;2.10;;
20743;SDS011;56303;52.160;-0.428;2023-03-25T00:25:09;7.97;;;1.40;;
20743;SDS011;56303;52.160;-0.428;2023-03-25T00:27:42;7.50;;;2.03;;
20743;SDS011;56303;52.160;-0.428;2023-03-25T00:30:11;6.57;;;2.10;;
20743;SDS011;56303;52.160;-0.428;2023-03-25T00:32:39;4.90;;;2.00;;
20743;SDS011;56303;52.160;-0.428;2023-03-25T00:35:06;7.80;;;2.30;;
20743;SDS011;56303;52.160;-0.428;2023-03-25T00:37:33;10.53;;;3.40;;
20743;SDS011;56303;52.160;-0.428;2023-03-25T00:40:01;6.57;;;1.70;;
20743;SDS011;56303;52.160;-0.428;2023-03-25T00:42:28;6.57;;;2.47;;
20743;SDS011;56303;52.160;-0.428;2023-03-25T00:44:55;7.10;;;1.90;;
20743;SDS011;56303;52.160;-0.428;2023-03-25T00:47:22;5.80;;;2.10;;
20743;SDS011;56303;52.160;-0.428;2023-03-25T00:49:49;5.60;;;2.03;;
20743;SDS011;56303;52.160;-0.428;2023-03-25T00:52:17;9.13;;;2.80;;
20743;SDS011;56303;52.160;-0.428;2023-03-25T00:54:44;14.57;;;4.10;;
20743;SDS011;56303;52.160;-0.428;2023-03-25T00:57:11;7.30;;;2.17;;
20743;SDS011;56303;52.160;-0.428;2023-03-25T00:59:39;12.27;;;2.20;;
20743;SDS011;56303;52.160;-0.428;2023-03-25T01:02:05;5.23;;;2.30;;
20743;SDS011;56303;52.160;-0.428;2023-03-25T01:04:33;10.63;;;2.20;;
20743;SDS011;56303;52.160;-0.428;2023-03-25T01:07:00;8.57;;;2.60;;
20743;SDS011;56303;52.160;-0.428;2023-03-25T01:09:28;8.23;;;2.73;;
20743;SDS011;56303;52.160;-0.428;2023-03-25T01:11:55;8.67;;;2.67;;
20743;SDS011;56303;52.160;-0.428;2023-03-25T01:14:22;8.77;;;3.00;;
20743;SDS011;56303;52.160;-0.428;2023-03-25T01:16:54;13.60;;;3.13;;
20743;SDS011;56303;52.160;-0.428;2023-03-25T01:19:24;7.20;;;2.70;;
20743;SDS011;56303;52.160;-0.428;2023-03-25T01:21:51;7.90;;;2.50;;
20743;SDS011;56303;52.160;-0.428;2023-03-25T01:24:18;10.57;;;3.13;;
20743;SDS011;56303;52.160;-0.428;2023-03-25T01:26:45;14.30;;;3.17;;
20743;SDS011;56303;52.160;-0.428;2023-03-25T01:29:12;12.43;;;2.57;;
20743;SDS011;56303;52.160;-0.428;2023-03-25T01:31:41;11.87;;;2.53;;
20743;SDS011;56303;52.160;-0.428;2023-03-25T01:34:09;8.70;;;2.80;;
20743;SDS011;56303;52.160;-0.428;2023-03-25T01:36:36;10.97;;;3.00;;
20743;SDS011;56303;52.160;-0.428;2023-03-25T01:39:05;11.50;;;3.07;;
20743;SDS011;56303;52.160;-0.428;2023-03-25T01:41:34;7.40;;;2.90;;
20743;SDS011;56303;52.160;-0.428;2023-03-25T01:46:45;11.43;;;3.10;;
20743;SDS011;56303;52.160;-0.428;2023-03-25T01:49:18;12.00;;;3.13;;
20743;SDS011;56303;52.160;-0.428;2023-03-25T01:51:58;9.57;;;3.00;;
20743;SDS011;56303;52.160;-0.428;2023-03-25T01:54:27;7.27;;;2.50;;
20743;SDS011;56303;52.160;-0.428;2023-03-25T01:56:54;10.73;;;3.33;;
20743;SDS011;56303;52.160;-0.428;2023-03-25T01:59:22;10.87;;;3.30;;
20743;SDS011;56303;52.160;-0.428;2023-03-25T02:01:52;10.97;;;3.40;;
20743;SDS011;56303;52.160;-0.428;2023-03-25T02:04:25;13.30;;;3.30;;
20743;SDS011;56303;52.160;-0.428;2023-03-25T02:07:00;10.27;;;2.83;;
20743;SDS011;56303;52.160;-0.428;2023-03-25T02:09:27;12.50;;;3.47;;
20743;SDS011;56303;52.160;-0.428;2023-03-25T02:11:54;10.10;;;2.30;;
20743;SDS011;56303;52.160;-0.428;2023-03-25T02:14:21;10.23;;;3.57;;
20743;SDS011;56303;52.160;-0.428;2023-03-25T02:17:04;10.90;;;2.70;;
20743;SDS011;56303;52.160;-0.428;2023-03-25T02:30:43;13.57;;;3.27;;
20743;SDS011;56303;52.160;-0.428;2023-03-25T02:39:38;8.80;;;2.87;;
20743;SDS011;56303;52.160;-0.428;2023-03-25T02:45:04;12.77;;;3.50;;
20743;SDS011;56303;52.160;-0.428;2023-03-25T02:47:48;13.47;;;3.60;;
20743;SDS011;56303;52.160;-0.428;2023-03-25T02:50:21;10.23;;;3.63;;
20743;SDS011;56303;52.160;-0.428;2023-03-25T02:52:59;14.63;;;3.77;;
20743;SDS011;56303;52.160;-0.428;2023-03-25T02:55:29;13.00;;;3.30;;
20743;SDS011;56303;52.160;-0.428;2023-03-25T02:57:58;14.23;;;3.70;;
20743;SDS011;56303;52.160;-0.428;2023-03-25T03:00:29;11.67;;;3.30;;
20743;SDS011;56303;52.160;-0.428;2023-03-25T03:02:58;13.00;;;3.53;;
20743;SDS011;56303;52.160;-0.428;2023-03-25T03:05:28;15.80;;;4.07;;
20743;SDS011;56303;52.160;-0.428;2023-03-25T03:10:48;11.07;;;2.73;;
20743;SDS011;56303;52.160;-0.428;2023-03-25T03:16:12;9.70;;;3.50;;
20743;SDS011;56303;52.160;-0.428;2023-03-25T03:22:36;14.73;;;3.50;;
20743;SDS011;56303;52.160;-0.428;2023-03-25T03:25:34;8.57;;;3.60;;
20743;SDS011;56303;52.160;-0.428;2023-03-25T03:28:06;15.10;;;3.80;;
20743;SDS011;56303;52.160;-0.428;2023-03-25T03:33:42;9.27;;;3.50;;
20743;SDS011;56303;52.160;-0.428;2023-03-25T03:36:16;10.63;;;3.23;;
20743;SDS011;56303;52.160;-0.428;2023-03-25T03:38:48;13.43;;;4.43;;
20743;SDS011;56303;52.160;-0.428;2023-03-25T03:41:20;11.97;;;3.67;;
20743;SDS011;56303;52.160;-0.428;2023-03-25T03:43:52;11.43;;;3.20;;
20743;SDS011;56303;52.160;-0.428;2023-03-25T03:46:28;9.60;;;3.37;;
20743;SDS011;56303;52.160;-0.428;2023-03-25T03:49:00;9.97;;;3.33;;
20743;SDS011;56303;52.160;-0.428;2023-03-25T03:51:36;14.17;;;3.53;;
20743;SDS011;56303;52.160;-0.428;2023-03-25T03:54:10;9.83;;;3.37;;
20743;SDS011;56303;52.160;-0.428;2023-03-25T03:56:46;10.27;;;3.60;;
20743;SDS011;56303;52.160;-0.428;2023-03-25T04:02:12;8.50;;;3.13;;
20743;SDS011;56303;52.160;-0.428;2023-03-25T04:04:49;9.97;;;2.90;;
20743;SDS011;56303;52.160;-0.428;2023-03-25T04:07:23;13.83;;;3.53;;
20743;SDS011;56303;52.160;-0.428;2023-03-25T04:10:08;14.93;;;2.93;;
20743;SDS011;56303;52.160;-0.428;2023-03-25T04:12:51;11.50;;;3.00;;
20743;SDS011;56303;52.160;-0.428;2023-03-25T04:15:20;10.23;;;2.87;;
20743;SDS011;56303;52.160;-0.428;2023-03-25T04:17:47;12.47;;;3.23;;
20743;SDS011;56303;52.160;-0.428;2023-03-25T04:20:15;12.00;;;3.83;;
20743;SDS011;56303;52.160;-0.428;2023-03-25T04:22:49;12.97;;;4.73;;
20743;SDS011;56303;52.160;-0.428;2023-03-25T04:25:17;11.63;;;3.30;;
20743;SDS011;56303;52.160;-0.428;2023-03-25T04:27:47;15.87;;;3.63;;
20743;SDS011;56303;52.160;-0.428;2023-03-25T04:30:14;14.43;;;4.10;;
20743;SDS011;56303;52.160;-0.428;2023-03-25T04:32:45;11.50;;;3.63;;
20743;SDS011;56303;52.160;-0.428;2023-03-25T04:35:13;10.67;;;3.30;;
20743;SDS011;56303;52.160;-0.428;2023-03-25T04:37:42;9.63;;;3.10;;
20743;SDS011;56303;52.160;-0.428;2023-03-25T04:40:11;13.90;;;3.03;;
20743;SDS011;56303;52.160;-0.428;2023-03-25T04:42:44;7.53;;;2.97;;
20743;SDS011;56303;52.160;-0.428;2023-03-25T04:45:12;13.73;;;3.70;;
20743;SDS011;56303;52.160;-0.428;2023-03-25T04:47:43;9.77;;;3.33;;
20743;SDS011;56303;52.160;-0.428;2023-03-25T04:52:45;12.90;;;3.93;;
20743;SDS011;56303;52.160;-0.428;2023-03-25T04:55:12;9.23;;;2.33;;
20743;SDS011;56303;52.160;-0.428;2023-03-25T04:57:43;14.90;;;3.67;;
20743;SDS011;56303;52.160;-0.428;2023-03-25T05:00:15;13.30;;;3.73;;
20743;SDS011;56303;52.160;-0.428;2023-03-25T05:02:43;12.70;;;3.60;;
20743;SDS011;56303;52.160;-0.428;2023-03-25T05:05:16;13.10;;;3.40;;
20743;SDS011;56303;52.160;-0.428;2023-03-25T05:07:48;13.33;;;3.83;;
20743;SDS011;56303;52.160;-0.428;2023-03-25T05:10:17;10.53;;;3.20;;
20743;SDS011;56303;52.160;-0.428;2023-03-25T05:12:45;13.03;;;3.20;;
20743;SDS011;56303;52.160;-0.428;2023-03-25T05:15:13;10.57;;;3.10;;
20743;SDS011;56303;52.160;-0.428;2023-03-25T05:17:42;11.77;;;3.97;;
20743;SDS011;56303;52.160;-0.428;2023-03-25T05:20:09;13.07;;;3.43;;
20743;SDS011;56303;52.160;-0.428;2023-03-25T05:22:37;14.97;;;3.70;;
20743;SDS011;56303;52.160;-0.428;2023-03-25T05:25:05;17.87;;;4.37;;
20743;SDS011;56303;52.160;-0.428;2023-03-25T05:27:33;12.67;;;3.30;;
20743;SDS011;56303;52.160;-0.428;2023-03-25T05:30:01;15.03;;;4.20;;
20743;SDS011;56303;52.160;-0.428;2023-03-25T05:32:29;13.23;;;4.60;;
20743;SDS011;56303;52.160;-0.428;2023-03-25T05:34:58;14.00;;;4.30;;
20743;SDS011;56303;52.160;-0.428;2023-03-25T05:37:26;12.77;;;4.50;;
20743;SDS011;56303;52.160;-0.428;2023-03-25T05:39:54;17.27;;;4.57;;
20743;SDS011;56303;52.160;-0.428;2023-03-25T05:42:21;16.57;;;4.17;;
20743;SDS011;56303;52.160;-0.428;2023-03-25T05:44:51;12.80;;;3.73;;
20743;SDS011;56303;52.160;-0.428;2023-03-25T05:47:19;18.07;;;4.80;;
20743;SDS011;56303;52.160;-0.428;2023-03-25T05:49:49;20.00;;;3.93;;
20743;SDS011;56303;52.160;-0.428;2023-03-25T05:52:17;18.13;;;3.93;;
20743;SDS011;56303;52.160;-0.428;2023-03-25T05:54:45;11.07;;;3.43;;
20743;SDS011;56303;52.160;-0.428;2023-03-25T05:57:16;10.00;;;2.97;;
20743;SDS011;56303;52.160;-0.428;2023-03-25T05:59:44;15.20;;;4.17;;
20743;SDS011;56303;52.160;-0.428;2023-03-25T06:02:12;14.10;;;4.50;;
20743;SDS011;56303;52.160;-0.428;2023-03-25T06:04:40;11.33;;;4.80;;
20743;SDS011;56303;52.160;-0.428;2023-03-25T06:07:11;19.40;;;4.33;;
20743;SDS011;56303;52.160;-0.428;2023-03-25T06:09:40;8.50;;;3.80;;
20743;SDS011;56303;52.160;-0.428;2023-03-25T06:12:15;8.43;;;3.43;;
20743;SDS011;56303;52.160;-0.428;2023-03-25T06:14:48;10.67;;;3.90;;
20743;SDS011;56303;52.160;-0.428;2023-03-25T06:17:20;16.77;;;3.70;;
20743;SDS011;56303;52.160;-0.428;2023-03-25T06:19:47;9.53;;;3.57;;
20743;SDS011;56303;52.160;-0.428;2023-03-25T06:22:15;13.53;;;3.90;;
20743;SDS011;56303;52.160;-0.428;2023-03-25T06:24:45;10.60;;;3.50;;
20743;SDS011;56303;52.160;-0.428;2023-03-25T06:27:14;10.43;;;3.07;;
20743;SDS011;56303;52.160;-0.428;2023-03-25T06:29:43;12.23;;;3.03;;
20743;SDS011;56303;52.160;-0.428;2023-03-25T06:32:11;15.27;;;3.73;;
20743;SDS011;56303;52.160;-0.428;2023-03-25T06:34:39;13.73;;;3.87;;
20743;SDS011;56303;52.160;-0.428;2023-03-25T06:37:08;9.73;;;3.10;;
20743;SDS011;56303;52.160;-0.428;2023-03-25T06:39:36;13.17;;;3.07;;
20743;SDS011;56303;52.160;-0.428;2023-03-25T06:42:03;10.80;;;2.77;;
20743;SDS011;56303;52.160;-0.428;2023-03-25T06:44:31;7.37;;;2.93;;
20743;SDS011;56303;52.160;-0.428;2023-03-25T06:46:59;11.40;;;3.40;;
20743;SDS011;56303;52.160;-0.428;2023-03-25T06:49:27;8.17;;;2.40;;
20743;SDS011;56303;52.160;-0.428;2023-03-25T06:51:54;7.40;;;2.50;;
20743;SDS011;56303;52.160;-0.428;2023-03-25T06:54:21;8.13;;;2.77;;
20743;SDS011;56303;52.160;-0.428;2023-03-25T06:56:48;7.10;;;2.07;;
20743;SDS011;56303;52.160;-0.428;2023-03-25T06:59:15;7.80;;;2.20;;
20743;SDS011;56303;52.160;-0.428;2023-03-25T07:01:41;5.83;;;2.00;;
20743;SDS011;56303;52.160;-0.428;2023-03-25T07:04:08;4.97;;;1.93;;
20743;SDS011;56303;52.160;-0.428;2023-03-25T07:06:35;8.23;;;2.30;;
20743;SDS011;56303;52.160;-0.428;2023-03-25T07:09:02;7.13;;;2.40;;
20743;SDS011;56303;52.160;-0.428;2023-03-25T07:11:29;5.23;;;2.13;;
20743;SDS011;56303;52.160;-0.428;2023-03-25T07:13:57;7.50;;;2.23;;
20743;SDS011;56303;52.160;-0.428;2023-03-25T07:16:24;7.77;;;2.30;;
20743;SDS011;56303;52.160;-0.428;2023-03-25T07:18:51;8.70;;;2.33;;
20743;SDS011;56303;52.160;-0.428;2023-03-25T07:21:20;8.80;;;2.20;;
20743;SDS011;56303;52.160;-0.428;2023-03-25T07:23:47;9.07;;;2.43;;
20743;SDS011;56303;52.160;-0.428;2023-03-25T07:26:14;10.00;;;2.57;;
20743;SDS011;56303;52.160;-0.428;2023-03-25T07:28:41;9.93;;;3.27;;
20743;SDS011;56303;52.160;-0.428;2023-03-25T07:31:12;10.67;;;2.67;;
20743;SDS011;56303;52.160;-0.428;2023-03-25T07:33:39;8.50;;;3.13;;
20743;SDS011;56303;52.160;-0.428;2023-03-25T07:36:07;7.67;;;2.77;;
20743;SDS011;56303;52.160;-0.428;2023-03-25T07:38:36;8.17;;;2.27;;
20743;SDS011;56303;52.160;-0.428;2023-03-25T07:41:06;8.87;;;2.20;;
20743;SDS011;56303;52.160;-0.428;2023-03-25T07:43:35;12.40;;;2.37;;
20743;SDS011;56303;52.160;-0.428;2023-03-25T07:46:03;8.00;;;2.67;;
20743;SDS011;56303;52.160;-0.428;2023-03-25T07:48:30;5.97;;;2.40;;
20743;SDS011;56303;52.160;-0.428;2023-03-25T07:50:57;5.37;;;2.83;;
20743;SDS011;56303;52.160;-0.428;2023-03-25T07:53:24;5.63;;;2.30;;
20743;SDS011;56303;52.160;-0.428;2023-03-25T07:55:51;8.60;;;2.60;;
20743;SDS011;56303;52.160;-0.428;2023-03-25T07:58:18;7.40;;;2.63;;
20743;SDS011;56303;52.160;-0.428;2023-03-25T08:00:45;6.07;;;2.00;;
20743;SDS011;56303;52.160;-0.428;2023-03-25T08:03:12;6.73;;;2.20;;
20743;SDS011;56303;52.160;-0.428;2023-03-25T08:05:46;8.67;;;1.97;;
20743;SDS011;56303;52.160;-0.428;2023-03-25T08:08:14;7.17;;;2.40;;
20743;SDS011;56303;52.160;-0.428;2023-03-25T08:10:41;9.27;;;2.33;;
20743;SDS011;56303;52.160;-0.428;2023-03-25T08:13:09;9.70;;;1.90;;
20743;SDS011;56303;52.160;-0.428;2023-03-25T08:15:37;5.37;;;1.60;;
20743;SDS011;56303;52.160;-0.428;2023-03-25T08:18:05;7.00;;;2.53;;
20743;SDS011;56303;52.160;-0.428;2023-03-25T08:20:33;7.47;;;2.03;;
20743;SDS011;56303;52.160;-0.428;2023-03-25T08:23:01;4.77;;;1.53;;
20743;SDS011;56303;52.160;-0.428;2023-03-25T08:25:28;3.80;;;1.60;;
20743;SDS011;56303;52.160;-0.428;2023-03-25T08:27:56;7.03;;;1.83;;
20743;SDS011;56303;52.160;-0.428;2023-03-25T08:30:23;5.40;;;1.53;;
20743;SDS011;56303;52.160;-0.428;2023-03-25T08:32:50;4.63;;;1.63;;
20743;SDS011;56303;52.160;-0.428;2023-03-25T08:35:20;3.37;;;1.50;;
20743;SDS011;56303;52.160;-0.428;2023-03-25T08:37:49;5.27;;;1.43;;
20743;SDS011;56303;52.160;-0.428;2023-03-25T08:40:16;2.90;;;1.07;;
20743;SDS011;56303;52.160;-0.428;2023-03-25T08:42:43;3.73;;;1.83;;
20743;SDS011;56303;52.160;-0.428;2023-03-25T08:45:12;3.83;;;1.20;;
20743;SDS011;56303;52.160;-0.428;2023-03-25T08:47:40;2.90;;;1.10;;
20743;SDS011;56303;52.160;-0.428;2023-03-25T08:50:09;2.73;;;1.60;;
20743;SDS011;56303;52.160;-0.428;2023-03-25T08:52:36;4.97;;;1.67;;
20743;SDS011;56303;52.160;-0.428;2023-03-25T08:55:04;3.67;;;1.30;;
20743;SDS011;56303;52.160;-0.428;2023-03-25T08:57:35;2.97;;;1.00;;
20743;SDS011;56303;52.160;-0.428;2023-03-25T09:00:03;4.83;;;1.47;;
20743;SDS011;56303;52.160;-0.428;2023-03-25T09:02:40;6.03;;;1.87;;
20743;SDS011;56303;52.160;-0.428;2023-03-25T09:05:09;1.47;;;0.87;;
20743;SDS011;56303;52.160;-0.428;2023-03-25T09:07:37;4.93;;;1.17;;
20743;SDS011;56303;52.160;-0.428;2023-03-25T09:10:05;4.63;;;1.17;;
20743;SDS011;56303;52.160;-0.428;2023-03-25T09:12:33;1.50;;;0.73;;
20743;SDS011;56303;52.160;-0.428;2023-03-25T09:15:14;2.77;;;1.00;;
20743;SDS011;56303;52.160;-0.428;2023-03-25T09:17:40;3.47;;;1.17;;
20743;SDS011;56303;52.160;-0.428;2023-03-25T09:20:08;3.83;;;1.20;;
20743;SDS011;56303;52.160;-0.428;2023-03-25T09:22:37;2.33;;;0.90;;
20743;SDS011;56303;52.160;-0.428;2023-03-25T09:25:04;2.77;;;1.23;;
20743;SDS011;56303;52.160;-0.428;2023-03-25T09:27:34;2.07;;;0.90;;
20743;SDS011;56303;52.160;-0.428;2023-03-25T09:30:02;5.33;;;1.50;;
20743;SDS011;56303;52.160;-0.428;2023-03-25T09:32:30;4.00;;;1.43;;
20743;SDS011;56303;52.160;-0.428;2023-03-25T09:34:58;3.63;;;1.10;;
20743;SDS011;56303;52.160;-0.428;2023-03-25T09:37:25;4.37;;;1.17;;
20743;SDS011;56303;52.160;-0.428;2023-03-25T09:39:52;4.30;;;1.20;;
20743;SDS011;56303;52.160;-0.428;2023-03-25T09:42:29;4.03;;;1.30;;
20743;SDS011;56303;52.160;-0.428;2023-03-25T09:48:26;4.67;;;1.47;;
20743;SDS011;56303;52.160;-0.428;2023-03-25T09:51:03;1.70;;;1.07;;
20743;SDS011;56303;52.160;-0.428;2023-03-25T09:56:27;3.03;;;1.13;;
20743;SDS011;56303;52.160;-0.428;2023-03-25T09:59:03;3.57;;;1.10;;
20743;SDS011;56303;52.160;-0.428;2023-03-25T10:01:37;3.43;;;1.27;;
20743;SDS011;56303;52.160;-0.428;2023-03-25T10:15:25;2.73;;;0.90;;
20743;SDS011;56303;52.160;-0.428;2023-03-25T10:23:29;4.13;;;1.50;;
20743;SDS011;56303;52.160;-0.428;2023-03-25T10:26:09;4.83;;;1.93;;
20743;SDS011;56303;52.160;-0.428;2023-03-25T10:28:57;5.93;;;1.60;;
20743;SDS011;56303;52.160;-0.428;2023-03-25T10:31:30;4.23;;;1.20;;
20743;SDS011;56303;52.160;-0.428;2023-03-25T10:34:10;6.57;;;2.00;;
20743;SDS011;56303;52.160;-0.428;2023-03-25T10:36:43;2.63;;;1.50;;
20743;SDS011;56303;52.160;-0.428;2023-03-25T10:39:20;5.60;;;1.70;;
20743;SDS011;56303;52.160;-0.428;2023-03-25T10:41:56;2.93;;;1.27;;
20743;SDS011;56303;52.160;-0.428;2023-03-25T10:44:44;2.87;;;0.97;;
20743;SDS011;56303;52.160;-0.428;2023-03-25T10:47:17;4.83;;;1.60;;
20743;SDS011;56303;52.160;-0.428;2023-03-25T10:49:48;4.37;;;1.00;;
20743;SDS011;56303;52.160;-0.428;2023-03-25T10:52:17;4.07;;;1.47;;
20743;SDS011;56303;52.160;-0.428;2023-03-25T10:54:45;3.20;;;1.50;;
20743;SDS011;56303;52.160;-0.428;2023-03-25T10:57:24;4.40;;;1.27;;
20743;SDS011;56303;52.160;-0.428;2023-03-25T11:00:02;5.97;;;1.53;;
20743;SDS011;56303;52.160;-0.428;2023-03-25T11:02:31;4.67;;;1.20;;
20743;SDS011;56303;52.160;-0.428;2023-03-25T11:05:00;4.87;;;1.33;;
20743;SDS011;56303;52.160;-0.428;2023-03-25T11:07:37;3.57;;;1.20;;
20743;SDS011;56303;52.160;-0.428;2023-03-25T11:12:41;5.83;;;1.33;;
20743;SDS011;56303;52.160;-0.428;2023-03-25T11:15:14;3.93;;;1.53;;
20743;SDS011;56303;52.160;-0.428;2023-03-25T11:17:45;1.57;;;0.90;;
20743;SDS011;56303;52.160;-0.428;2023-03-25T11:20:17;5.13;;;1.83;;
20743;SDS011;56303;52.160;-0.428;2023-03-25T11:22:48;4.50;;;1.50;;
20743;SDS011;56303;52.160;-0.428;2023-03-25T11:25:22;1.97;;;1.00;;
20743;SDS011;56303;52.160;-0.428;2023-03-25T11:27:54;3.07;;;1.03;;
20743;SDS011;56303;52.160;-0.428;2023-03-25T11:30:23;2.77;;;1.17;;
20743;SDS011;56303;52.160;-0.428;2023-03-25T11:33:01;5.03;;;1.30;;
20743;SDS011;56303;52.160;-0.428;2023-03-25T11:35:34;6.03;;;1.47;;
20743;SDS011;56303;52.160;-0.428;2023-03-25T11:38:14;3.43;;;1.30;;
20743;SDS011;56303;52.160;-0.428;2023-03-25T11:41:02;3.23;;;1.30;;
20743;SDS011;56303;52.160;-0.428;2023-03-25T11:43:36;2.53;;;1.30;;
20743;SDS011;56303;52.160;-0.428;2023-03-25T11:48:45;2.70;;;1.13;;
20743;SDS011;56303;52.160;-0.428;2023-03-25T11:51:27;3.40;;;1.00;;
20743;SDS011;56303;52.160;-0.428;2023-03-25T11:53:56;2.17;;;1.13;;
20743;SDS011;56303;52.160;-0.428;2023-03-25T11:56:37;3.50;;;1.10;;
20743;SDS011;56303;52.160;-0.428;2023-03-25T11:59:16;3.07;;;1.47;;
20743;SDS011;56303;52.160;-0.428;2023-03-25T12:01:49;2.27;;;1.00;;
20743;SDS011;56303;52.160;-0.428;2023-03-25T12:04:17;1.93;;;1.20;;
20743;SDS011;56303;52.160;-0.428;2023-03-25T12:06:59;1.43;;;0.80;;
20743;SDS011;56303;52.160;-0.428;2023-03-25T12:09:31;4.57;;;1.10;;
20743;SDS011;56303;52.160;-0.428;2023-03-25T12:12:08;3.70;;;0.87;;
20743;SDS011;56303;52.160;-0.428;2023-03-25T12:15:10;3.70;;;1.30;;
20743;SDS011;56303;52.160;-0.428;2023-03-25T12:26:18;2.87;;;1.17;;
20743;SDS011;56303;52.160;-0.428;2023-03-25T12:34:08;3.67;;;1.50;;
20743;SDS011;56303;52.160;-0.428;2023-03-25T12:42:35;4.03;;;1.23;;
20743;SDS011;56303;52.160;-0.428;2023-03-25T12:51:19;1.60;;;0.70;;
20743;SDS011;56303;52.160;-0.428;2023-03-25T13:05:21;1.90;;;0.90;;
20743;SDS011;56303;52.160;-0.428;2023-03-25T13:07:57;1.33;;;0.80;;
20743;SDS011;56303;52.160;-0.428;2023-03-25T13:10:36;1.87;;;0.80;;
20743;SDS011;56303;52.160;-0.428;2023-03-25T13:13:08;2.00;;;0.97;;
20743;SDS011;56303;52.160;-0.428;2023-03-25T13:15:43;0.40;;;0.40;;
20743;SDS011;56303;52.160;-0.428;2023-03-25T13:18:26;2.47;;;0.80;;
20743;SDS011;56303;52.160;-0.428;2023-03-25T13:21:20;1.37;;;0.60;;
20743;SDS011;56303;52.160;-0.428;2023-03-25T13:23:59;3.17;;;0.97;;
20743;SDS011;56303;52.160;-0.428;2023-03-25T13:26:31;4.00;;;1.13;;
20743;SDS011;56303;52.160;-0.428;2023-03-25T13:29:03;1.17;;;0.67;;
20743;SDS011;56303;52.160;-0.428;2023-03-25T13:31:35;1.33;;;0.83;;
20743;SDS011;56303;52.160;-0.428;2023-03-25T13:34:18;1.40;;;1.00;;
20743;SDS011;56303;52.160;-0.428;2023-03-25T13:36:58;1.83;;;0.90;;
20743;SDS011;56303;52.160;-0.428;2023-03-25T13:39:42;1.80;;;0.90;;
20743;SDS011;56303;52.160;-0.428;2023-03-25T13:45:08;2.77;;;1.10;;
20743;SDS011;56303;52.160;-0.428;2023-03-25T13:50:32;1.80;;;0.70;;
20743;SDS011;56303;52.160;-0.428;2023-03-25T13:53:06;1.47;;;0.90;;
20743;SDS011;56303;52.160;-0.428;2023-03-25T13:55:47;2.17;;;0.73;;
20743;SDS011;56303;52.160;-0.428;2023-03-25T14:12:21;1.93;;;0.53;;
20743;SDS011;56303;52.160;-0.428;2023-03-25T14:17:30;4.53;;;0.90;;
20743;SDS011;56303;52.160;-0.428;2023-03-25T14:20:01;2.00;;;0.57;;
20743;SDS011;56303;52.160;-0.428;2023-03-25T14:22:35;1.80;;;1.10;;
20743;SDS011;56303;52.160;-0.428;2023-03-25T14:25:26;2.73;;;1.00;;
20743;SDS011;56303;52.160;-0.428;2023-03-25T14:27:57;2.27;;;0.90;;
20743;SDS011;56303;52.160;-0.428;2023-03-25T14:30:26;3.20;;;0.93;;
20743;SDS011;56303;52.160;-0.428;2023-03-25T14:32:54;1.53;;;0.87;;
20743;SDS011;56303;52.160;-0.428;2023-03-25T14:43:51;1.30;;;0.60;;
20743;SDS011;56303;52.160;-0.428;2023-03-25T14:46:35;2.20;;;0.83;;
20743;SDS011;56303;52.160;-0.428;2023-03-25T14:54:15;1.67;;;0.67;;
20743;SDS011;56303;52.160;-0.428;2023-03-25T14:56:51;2.03;;;1.10;;
20743;SDS011;56303;52.160;-0.428;2023-03-25T14:59:20;2.97;;;1.13;;
20743;SDS011;56303;52.160;-0.428;2023-03-25T15:01:58;2.33;;;1.00;;
20743;SDS011;56303;52.160;-0.428;2023-03-25T15:04:35;1.00;;;0.90;;
20743;SDS011;56303;52.160;-0.428;2023-03-25T15:07:03;1.17;;;0.67;;
20743;SDS011;56303;52.160;-0.428;2023-03-25T15:09:48;1.37;;;0.70;;
20743;SDS011;56303;52.160;-0.428;2023-03-25T15:12:22;2.30;;;0.87;;
20743;SDS011;56303;52.160;-0.428;2023-03-25T15:14:55;2.07;;;1.03;;
20743;SDS011;56303;52.160;-0.428;2023-03-25T15:17:38;2.23;;;0.80;;
20743;SDS011;56303;52.160;-0.428;2023-03-25T15:20:10;2.47;;;1.07;;
20743;SDS011;56303;52.160;-0.428;2023-03-25T15:25:58;1.40;;;0.70;;
20743;SDS011;56303;52.160;-0.428;2023-03-25T15:28:30;1.50;;;0.77;;
20743;SDS011;56303;52.160;-0.428;2023-03-25T15:34:15;4.07;;;1.00;;
20743;SDS011;56303;52.160;-0.428;2023-03-25T15:39:39;1.57;;;0.87;;
20743;SDS011;56303;52.160;-0.428;2023-03-25T15:46:00;3.17;;;0.70;;
20743;SDS011;56303;52.160;-0.428;2023-03-25T15:56:59;0.97;;;0.77;;
20743;SDS011;56303;52.160;-0.428;2023-03-25T15:59:43;1.43;;;0.50;;
20743;SDS011;56303;52.160;-0.428;2023-03-25T16:02:15;1.00;;;0.50;;
20743;SDS011;56303;52.160;-0.428;2023-03-25T16:04:51;2.03;;;0.97;;
20743;SDS011;56303;52.160;-0.428;2023-03-25T16:07:21;2.00;;;0.67;;
20743;SDS011;56303;52.160;-0.428;2023-03-25T16:09:50;1.83;;;1.00;;
20743;SDS011;56303;52.160;-0.428;2023-03-25T16:12:23;0.70;;;0.40;;
20743;SDS011;56303;52.160;-0.428;2023-03-25T16:14:50;1.50;;;0.73;;
20743;SDS011;56303;52.160;-0.428;2023-03-25T16:17:18;2.73;;;1.10;;
20743;SDS011;56303;52.160;-0.428;2023-03-25T16:19:51;2.97;;;1.17;;
20743;SDS011;56303;52.160;-0.428;2023-03-25T16:22:21;2.30;;;1.03;;
20743;SDS011;56303;52.160;-0.428;2023-03-25T16:24:55;1.63;;;0.97;;
20743;SDS011;56303;52.160;-0.428;2023-03-25T16:27:25;3.47;;;1.00;;
20743;SDS011;56303;52.160;-0.428;2023-03-25T16:30:18;2.97;;;1.10;;
20743;SDS011;56303;52.160;-0.428;2023-03-25T16:32:48;3.33;;;0.93;;
20743;SDS011;56303;52.160;-0.428;2023-03-25T16:35:25;2.67;;;1.10;;
20743;SDS011;56303;52.160;-0.428;2023-03-25T16:37:54;4.17;;;1.07;;
20743;SDS011;56303;52.160;-0.428;2023-03-25T16:40:28;2.53;;;1.23;;
20743;SDS011;56303;52.160;-0.428;2023-03-25T16:43:04;0.90;;;0.90;;
20743;SDS011;56303;52.160;-0.428;2023-03-25T16:45:36;2.93;;;1.43;;
20743;SDS011;56303;52.160;-0.428;2023-03-25T16:48:05;3.93;;;1.33;;
20743;SDS011;56303;52.160;-0.428;2023-03-25T16:50:38;3.53;;;1.20;;
20743;SDS011;56303;52.160;-0.428;2023-03-25T16:53:06;3.50;;;1.60;;
20743;SDS011;56303;52.160;-0.428;2023-03-25T16:55:43;5.47;;;1.47;;
20743;SDS011;56303;52.160;-0.428;2023-03-25T16:58:14;4.07;;;1.13;;
20743;SDS011;56303;52.160;-0.428;2023-03-25T17:00:43;2.10;;;1.30;;
20743;SDS011;56303;52.160;-0.428;2023-03-25T17:03:14;2.43;;;1.10;;
20743;SDS011;56303;52.160;-0.428;2023-03-25T17:05:58;4.70;;;1.40;;
20743;SDS011;56303;52.160;-0.428;2023-03-25T17:08:28;2.53;;;1.20;;
20743;SDS011;56303;52.160;-0.428;2023-03-25T17:10:56;2.40;;;1.40;;
20743;SDS011;56303;52.160;-0.428;2023-03-25T17:13:25;2.53;;;0.97;;
20743;SDS011;56303;52.160;-0.428;2023-03-25T17:15:57;4.73;;;1.17;;
20743;SDS011;56303;52.160;-0.428;2023-03-25T17:18:28;2.87;;;1.17;;
20743;SDS011;56303;52.160;-0.428;2023-03-25T17:20:57;3.97;;;1.37;;
20743;SDS011;56303;52.160;-0.428;2023-03-25T17:26:06;3.33;;;1.57;;
20743;SDS011;56303;52.160;-0.428;2023-03-25T17:28:38;3.40;;;1.27;;
20743;SDS011;56303;52.160;-0.428;2023-03-25T17:36:33;5.63;;;1.50;;
20743;SDS011;56303;52.160;-0.428;2023-03-25T17:39:02;6.00;;;2.13;;
20743;SDS011;56303;52.160;-0.428;2023-03-25T17:41:34;5.67;;;2.10;;
20743;SDS011;56303;52.160;-0.428;2023-03-25T17:44:03;5.07;;;2.07;;
20743;SDS011;56303;52.160;-0.428;2023-03-25T17:46:31;5.97;;;1.90;;